OIBS  Sirri Island Airport

Add Bookmark

Iran

Status IATA
Operational SXI
Latitude Longitude
25° 54' 32" N 54° 32' 21" E
25.908899 54.539398
Local (DST + 5) UTC (GMT + 4)
Feb 1, 2015 07:36 Feb 1, 2015 04:06
Sunrise-Sunset Local UTC
Begin Civil Twilight 06:10 02:40
Sunrise 06:34 03:04
Sunset 05:36 14:06
End Civil Twilight 06:00 14:30

Current Weather

METAR Observed MVFR
OIBS 010300Z 20006KT 8000 SKC 22/19 Q1015 Sun, Feb 1, 2015 @ 03:00 UTC
(1 Hour, 6 Minutes ago)
Marginal Visual Flight Rules
Wind Visibility Clouds Conditions
200° at 6 knots (11 kph) 8000 meters
  • Clear skies
  • No significant weather
Temperatures Readings Precipitation
Current Temp 22°C (72°F)
Dewpoint 19°C (66°F)
Humidity 83%
Altimeter 29.97"Hg
Sea Level Pressure 1015mb
Field Elevation 45.93'
None Recorded

Additional weather within a 92.6km radius of OIBS

Map ICAO Location
OIBA 49.4km E (094°)
OIBL 74.8km N (022°)
OIBK 88.3km N (321°)

24 Hour Weather History

Loading
-

24 Hour Weather Graphs

Loading
-

CheckWX.com is intended as a tool to help pilots better visualize weather data. It is not intended as a substitute for an official weather briefing obtained from a Flight Service Station. CheckWX.com does not meet the FAA requirements for an official pre-flight weather briefing. Therefore, it's important that pilots still call and obtain an official FSS pre-flight weather briefing.